Wednesday, October 22, 2014, 5:35 AM EDT
Back to Local

KORE, Orange, Orange Municipal Airport

Location: Orange, MA, United States Lat: 42.572
Local Time: 5:35 AM EDT ( 9:35 GMT) Lon: -72.278
Time Zone: US/Eastern Elev: 554 ft

Show me the last for .
Show Coded

Time T Td Feel RH Dir Speed Gust Alt SLP Vis Weather Sky Remarks
2014-10-22 04:52 50 46 47 86 10° 7 - 30.02 30.02 10 OVC010 None
2014-10-22 03:52 50 46 46 86 20° 9 - 30.00 30.00 10 OVC010 None
2014-10-22 02:52 51 46 - 82 30° 6 - 30.00 30.00 10 OVC012 None
2014-10-22 01:52 51 47 - 85 20° 9 - 30.00 30.00 10 OVC011 6-hr Min Temp (2am): 51.1°F
6-hr Max Temp (2am): 53.1°F
2014-10-22 00:52 51 47 - 85 40° 9 - 30.00 30.01 10 OVC010 24-hr Min Temp (1am): 42.1°F
24-hr Max Temp (1am): 60.1°F
2014-10-22 00:48 52 46 - 81 30° 12 - 30.00 - 10 OVC010 None
2014-10-21 23:52 52 49 - 89 10° 6 - 30.01 30.01 10 OVC007 None
2014-10-21 22:52 52 49 - 89 20° 8 - 30.00 30.01 10 OVC007 None
2014-10-21 21:52 52 49 - 89 10° 9 - 29.99 30.00 10 OVC007 None
2014-10-21 20:52 53 50 - 89 20° 6 - 29.98 29.98 10 OVC008 None
2014-10-21 19:52 53 50 - 89 360° 6 - 29.96 29.97 10 OVC009 6-hr Min Temp (8pm): 53.1°F
6-hr Max Temp (8pm): 60.1°F
2014-10-21 18:52 54 49 - 83 10° 6 - 29.94 29.95 10 OVC014 None
2014-10-21 18:33 54 49 - 83 10° 6 - 29.94 - 10 BKN015 OVC036 None
2014-10-21 17:52 54 49 - 83 350° 8 - 29.93 29.93 10 OVC095 None
2014-10-21 16:52 57 49 - 74 340° 12 - 29.92 29.92 10 BKN031 None
2014-10-21 15:52 59 49 - 69 350° 9 - 29.90 29.90 10 SCT080 None
2014-10-21 14:52 56 48 - 74 310° 7 - 29.91 29.92 10 FEW043 OVC080 None
2014-10-21 13:52 58 49 - 71 310° 6 - 29.91 29.92 10 FEW029 BKN045 OVC100 1-hr Precip Total: Trace
6-hr Precip Total (2pm): 0.00"
6-hr Min Temp (2pm): 43.0°F
6-hr Max Temp (2pm): 57.9°F
2014-10-21 12:52 58 48 - 69 310° 6 - 29.93 29.93 10 FEW039 OVC085 None
2014-10-21 11:52 56 46 - 69 - Calm - 29.95 29.96 10 BKN080 OVC100 None
2014-10-21 10:52 51 45 - 79 310° 8 - 29.96 29.96 10 SCT060 OVC070 6-hr Precip Total (11am): 0.00"
2014-10-21 08:52 46 42 - 85 - Calm - 29.97 29.98 10 BKN047 OVC095 1-hr Precip Total: Trace
2014-10-21 07:52 43 42 - 96 - Calm - 29.96 29.97 10 BKN075 OVC090 6-hr Min Temp (8am): 42.1°F
6-hr Max Temp (8am): 44.1°F
2014-10-21 06:52 42 41 - 95 - Calm - 29.95 29.96 10 OVC110 None
2014-10-21 05:52 43 41 - 92 - Calm - 29.94 29.95 10 BKN120 None

Support USWX by starting your Amazon purchase here.